createdAt,value
2018-05-11T00:02:19.559Z,80.83
2018-05-11T00:04:46.968Z,80.71
2018-05-11T00:07:14.391Z,79.99
2018-05-11T00:09:41.816Z,80.78
2018-05-11T00:12:09.244Z,80.60
2018-05-11T00:14:36.656Z,80.45
2018-05-11T00:17:04.093Z,80.02
2018-05-11T00:19:31.491Z,80.26
2018-05-11T00:21:58.938Z,79.78
2018-05-11T00:24:26.341Z,79.73
2018-05-11T00:26:53.760Z,80.32
2018-05-11T00:29:21.169Z,80.00
2018-05-11T00:31:48.576Z,79.48
2018-05-11T00:34:16.000Z,79.62
2018-05-11T00:36:43.427Z,79.55
2018-05-11T00:39:10.861Z,79.49
2018-05-11T00:41:38.278Z,79.56
2018-05-11T00:44:05.708Z,79.71
2018-05-11T00:46:33.121Z,79.67
2018-05-11T00:49:00.544Z,79.46
2018-05-11T00:51:27.969Z,79.35
2018-05-11T00:53:55.392Z,79.69
2018-05-11T00:56:22.808Z,79.99
2018-05-11T00:58:50.224Z,80.04
2018-05-11T01:01:17.656Z,79.81
2018-05-11T01:03:45.067Z,79.81
2018-05-11T01:06:12.472Z,79.92
2018-05-11T01:08:39.892Z,79.85
2018-05-11T01:11:07.304Z,80.21
2018-05-11T01:13:34.736Z,80.28
2018-05-11T01:16:02.147Z,80.14
2018-05-11T01:18:29.557Z,79.70
2018-05-11T01:20:57.601Z,79.61
2018-05-11T01:23:25.012Z,79.66
2018-05-11T01:25:52.426Z,79.73
2018-05-11T01:28:19.853Z,79.71
2018-05-11T01:30:47.260Z,79.79
2018-05-11T01:33:14.681Z,79.56
2018-05-11T01:35:42.108Z,79.46
2018-05-11T01:38:09.788Z,79.31
2018-05-11T01:40:37.217Z,79.32
2018-05-11T01:43:04.652Z,79.48
2018-05-11T01:45:32.073Z,78.98
2018-05-11T01:47:59.485Z,78.54
2018-05-11T01:50:26.916Z,78.46
2018-05-11T01:52:54.328Z,78.09
2018-05-11T01:55:21.774Z,78.36
2018-05-11T01:57:49.189Z,78.66
2018-05-11T02:00:16.629Z,78.88
2018-05-11T02:02:44.056Z,78.63
2018-05-11T02:05:11.468Z,78.70
2018-05-11T02:07:38.881Z,78.31
2018-05-11T02:10:06.320Z,78.53
2018-05-11T02:12:33.744Z,79.11
2018-05-11T02:15:01.185Z,78.96
2018-05-11T02:17:28.612Z,79.21
2018-05-11T02:19:56.034Z,78.87
2018-05-11T02:22:23.455Z,78.79
2018-05-11T02:24:51.310Z,79.18
2018-05-11T02:27:18.724Z,79.23
2018-05-11T02:29:46.139Z,79.42
2018-05-11T02:32:13.574Z,79.92
2018-05-11T02:34:40.996Z,80.44
2018-05-11T02:37:08.440Z,79.97
2018-05-11T02:39:35.855Z,80.66
2018-05-11T02:42:03.275Z,80.01
2018-05-11T02:44:30.710Z,80.09
2018-05-11T02:46:58.113Z,80.10
2018-05-11T02:49:25.898Z,80.62
2018-05-11T02:51:53.259Z,80.66
2018-05-11T02:54:20.668Z,80.66
2018-05-11T02:56:48.106Z,80.24
2018-05-11T02:59:15.508Z,80.08
2018-05-11T03:01:42.924Z,80.18
2018-05-11T03:04:10.347Z,80.41
2018-05-11T03:06:37.753Z,80.79
2018-05-11T03:09:05.947Z,81.25
2018-05-11T03:11:33.373Z,80.98
2018-05-11T03:14:00.792Z,81.23
2018-05-11T03:16:28.204Z,82.11
2018-05-11T03:18:55.623Z,82.03
2018-05-11T03:21:23.029Z,81.42
2018-05-11T03:23:50.465Z,81.07
2018-05-11T03:26:17.864Z,81.34
2018-05-11T03:28:45.284Z,81.01
2018-05-11T03:31:12.749Z,81.36
2018-05-11T03:33:40.430Z,81.15
2018-05-11T03:36:07.852Z,81.54
2018-05-11T03:38:35.302Z,81.56
2018-05-11T03:41:03.078Z,81.31
2018-05-11T03:43:30.495Z,81.15
2018-05-11T03:45:57.908Z,80.80
2018-05-11T03:48:25.374Z,80.85
2018-05-11T03:50:52.816Z,80.94
2018-05-11T03:53:20.232Z,80.50
2018-05-11T03:55:47.653Z,80.67
2018-05-11T03:58:15.155Z,80.54
2018-05-11T04:00:42.563Z,80.34
2018-05-11T04:03:21.812Z,80.44
2018-05-11T04:08:46.728Z,80.46
2018-05-11T04:11:14.140Z,80.37
2018-05-11T04:13:41.552Z,79.98
2018-05-11T04:16:08.981Z,80.03
2018-05-11T04:18:36.402Z,80.04
2018-05-11T04:21:03.820Z,80.03
2018-05-11T04:23:31.232Z,79.38
2018-05-11T04:25:59.099Z,79.97
2018-05-11T04:28:26.513Z,80.06
2018-05-11T04:30:53.919Z,79.95
2018-05-11T04:33:21.339Z,80.08
2018-05-11T04:35:49.076Z,79.94
2018-05-11T04:38:16.477Z,79.73
2018-05-11T04:40:43.891Z,79.58
2018-05-11T04:43:11.615Z,79.67
2018-05-11T04:45:39.029Z,79.59
2018-05-11T04:48:06.435Z,79.01
2018-05-11T04:50:33.880Z,79.03
2018-05-11T04:53:01.288Z,79.12
2018-05-11T04:55:28.726Z,78.75
2018-05-11T04:57:56.128Z,78.34
2018-05-11T05:00:23.896Z,78.12
2018-05-11T05:02:51.304Z,78.55
2018-05-11T05:05:18.728Z,78.58
2018-05-11T05:07:46.152Z,78.60
2018-05-11T05:10:13.579Z,78.04
2018-05-11T05:12:40.999Z,78.09
2018-05-11T05:15:08.410Z,77.28
2018-05-11T05:17:35.837Z,76.60
2018-05-11T05:20:03.276Z,76.21
2018-05-11T05:22:30.726Z,76.48
2018-05-11T05:24:58.135Z,76.54
2018-05-11T05:27:25.646Z,75.81
2018-05-11T05:29:53.053Z,76.04
2018-05-11T05:32:20.492Z,75.44
2018-05-11T05:34:48.272Z,75.42
2018-05-11T05:37:15.679Z,74.53
2018-05-11T05:39:43.087Z,73.75
2018-05-11T05:42:10.516Z,73.52
2018-05-11T05:44:37.927Z,74.16
2018-05-11T05:47:05.352Z,73.49
2018-05-11T05:49:32.765Z,73.53
2018-05-11T05:52:00.250Z,73.16
2018-05-11T05:54:27.596Z,73.10
2018-05-11T05:56:55.001Z,72.17
2018-05-11T05:59:22.423Z,72.50
2018-05-11T06:01:49.835Z,72.59
2018-05-11T06:04:17.243Z,72.18
2018-05-11T06:06:44.664Z,71.49
2018-05-11T06:09:12.075Z,71.37
2018-05-11T06:11:39.502Z,70.93
2018-05-11T06:14:06.909Z,68.77
2018-05-11T06:16:34.316Z,69.17
2018-05-11T06:19:01.755Z,68.54
2018-05-11T06:21:29.171Z,67.66
2018-05-11T06:23:56.865Z,67.48
2018-05-11T06:26:24.313Z,66.20
2018-05-11T06:28:51.725Z,66.32
2018-05-11T06:31:19.155Z,66.07
2018-05-11T06:33:46.577Z,64.47
2018-05-11T06:36:14.015Z,63.89
2018-05-11T06:38:41.428Z,62.57
2018-05-11T06:41:08.857Z,63.92
2018-05-11T06:43:36.272Z,64.13
2018-05-11T06:46:03.744Z,64.23
2018-05-11T06:48:31.125Z,63.45
2018-05-11T06:50:58.541Z,60.67
2018-05-11T06:53:26.040Z,63.24
2018-05-11T06:55:53.493Z,62.19
2018-05-11T06:58:20.873Z,63.80
2018-05-11T07:00:48.358Z,63.95
2018-05-11T07:03:15.780Z,64.32
2018-05-11T07:05:43.203Z,63.41
2018-05-11T07:08:10.637Z,63.55
2018-05-11T07:10:38.064Z,63.33
2018-05-11T07:13:05.562Z,63.98
2018-05-11T07:15:32.980Z,64.30
2018-05-11T07:18:00.383Z,63.94
2018-05-11T07:20:27.820Z,63.61
2018-05-11T07:22:55.223Z,64.48
2018-05-11T07:25:22.643Z,65.22
2018-05-11T07:27:50.060Z,65.16
2018-05-11T07:30:17.471Z,65.25
2018-05-11T07:32:44.896Z,65.58
2018-05-11T07:35:12.326Z,64.59
2018-05-11T07:37:39.727Z,63.65
2018-05-11T07:40:07.169Z,63.15
2018-05-11T07:42:34.575Z,60.31
2018-05-11T07:45:01.990Z,58.34
2018-05-11T07:47:29.416Z,58.33
2018-05-11T07:49:56.824Z,57.40
2018-05-11T07:52:24.630Z,55.74
2018-05-11T07:54:52.034Z,51.74
2018-05-11T07:57:19.457Z,52.77
2018-05-11T07:59:47.252Z,49.25
2018-05-11T08:02:14.663Z,48.46
2018-05-11T08:04:42.079Z,48.51
2018-05-11T08:07:09.508Z,47.06
2018-05-11T08:09:36.916Z,45.08
2018-05-11T08:12:04.357Z,42.58
2018-05-11T08:14:31.851Z,45.13
2018-05-11T08:16:59.183Z,42.60
2018-05-11T08:19:26.892Z,44.44
2018-05-11T08:21:54.300Z,43.93
2018-05-11T08:24:21.708Z,44.21
2018-05-11T08:26:49.248Z,43.61
2018-05-11T08:29:16.612Z,40.59
2018-05-11T08:31:44.040Z,42.36
2018-05-11T08:34:11.451Z,40.41
2018-05-11T08:36:38.881Z,42.60
2018-05-11T08:39:06.311Z,40.99
2018-05-11T08:41:33.728Z,40.99
2018-05-11T08:44:01.496Z,42.13
2018-05-11T08:46:28.908Z,42.12
2018-05-11T08:48:56.320Z,43.59
2018-05-11T08:51:23.749Z,44.50
2018-05-11T08:53:51.165Z,44.62
2018-05-11T08:56:18.600Z,45.85
2018-05-11T08:58:46.028Z,46.23
2018-05-11T09:01:13.448Z,45.19
2018-05-11T09:03:40.860Z,44.61
2018-05-11T09:06:08.294Z,46.21
2018-05-11T09:08:35.753Z,44.44
2018-05-11T09:11:03.370Z,44.09
2018-05-11T09:13:30.795Z,43.40
2018-05-11T09:15:58.219Z,43.63
2018-05-11T09:18:25.643Z,43.20
2018-05-11T09:20:53.055Z,44.09
2018-05-11T09:23:20.807Z,43.32
2018-05-11T09:25:48.224Z,42.64
2018-05-11T09:28:15.631Z,42.42
2018-05-11T09:30:43.124Z,41.25
2018-05-11T09:33:10.529Z,41.45
2018-05-11T09:35:37.938Z,40.30
2018-05-11T09:38:05.381Z,40.33
2018-05-11T09:40:33.060Z,41.41
2018-05-11T09:43:00.472Z,42.27
2018-05-11T09:45:28.319Z,41.34
2018-05-11T09:47:55.647Z,42.57
2018-05-11T09:50:23.060Z,42.61
2018-05-11T09:52:50.490Z,43.43
2018-05-11T09:55:17.891Z,43.78
2018-05-11T09:57:45.299Z,44.68
2018-05-11T10:00:12.736Z,44.43
2018-05-11T10:02:40.156Z,44.71
2018-05-11T10:05:07.564Z,44.55
2018-05-11T10:07:34.991Z,44.53
2018-05-11T10:10:02.598Z,42.37
2018-05-11T10:12:30.010Z,44.37
2018-05-11T10:14:57.431Z,45.48
2018-05-11T10:17:24.859Z,46.53
2018-05-11T10:19:52.276Z,46.95
2018-05-11T10:22:20.079Z,47.20
2018-05-11T10:24:47.492Z,48.55
2018-05-11T10:27:14.913Z,47.51
2018-05-11T10:29:42.573Z,47.85
2018-05-11T10:32:10.064Z,49.21
2018-05-11T10:34:37.486Z,48.64
2018-05-11T10:37:04.959Z,46.87
2018-05-11T10:39:32.380Z,46.60
2018-05-11T10:42:00.217Z,46.29
2018-05-11T10:44:27.629Z,45.54
2018-05-11T10:46:55.032Z,45.35
2018-05-11T10:49:22.491Z,44.56
2018-05-11T10:51:49.909Z,46.62
2018-05-11T10:54:17.340Z,46.34
2018-05-11T10:56:44.756Z,46.97
2018-05-11T10:59:12.172Z,47.25
2018-05-11T11:01:39.606Z,48.30
2018-05-11T11:04:07.011Z,47.74
2018-05-11T11:06:34.435Z,47.45
2018-05-11T11:09:01.881Z,47.04
2018-05-11T11:11:29.309Z,47.01
2018-05-11T11:13:56.717Z,46.57
2018-05-11T11:16:24.132Z,46.26
2018-05-11T11:18:51.593Z,46.77
2018-05-11T11:21:19.011Z,47.55
2018-05-11T11:23:46.462Z,47.27
2018-05-11T11:26:13.886Z,47.80
2018-05-11T11:28:41.338Z,47.14
2018-05-11T11:31:08.776Z,47.55
2018-05-11T11:33:36.211Z,46.25
2018-05-11T11:36:03.639Z,46.29
2018-05-11T11:38:31.076Z,47.61
2018-05-11T11:40:58.485Z,47.75
2018-05-11T11:43:25.928Z,50.31
2018-05-11T11:45:53.350Z,48.61
2018-05-11T11:48:20.775Z,47.62
2018-05-11T11:50:48.212Z,48.03
2018-05-11T11:53:15.616Z,47.10
2018-05-11T11:55:43.597Z,47.37
2018-05-11T11:58:10.999Z,46.34
2018-05-11T12:00:38.418Z,47.06
2018-05-11T12:03:05.840Z,47.02
2018-05-11T12:05:33.242Z,44.79
2018-05-11T12:08:01.294Z,44.77
2018-05-11T12:10:28.700Z,45.31
2018-05-11T12:12:56.113Z,44.38
2018-05-11T12:15:23.536Z,43.92
2018-05-11T12:17:50.949Z,44.76
2018-05-11T12:20:18.380Z,45.25
2018-05-11T12:22:45.798Z,45.16
2018-05-11T12:25:13.223Z,45.30
2018-05-11T12:27:40.652Z,45.42
2018-05-11T12:30:08.085Z,45.64
2018-05-11T12:32:35.551Z,45.53
2018-05-11T12:35:02.980Z,45.87
2018-05-11T12:37:30.425Z,46.14
2018-05-11T12:39:57.829Z,46.31
2018-05-11T12:42:25.251Z,45.92
2018-05-11T12:44:52.685Z,45.70
2018-05-11T12:47:20.098Z,45.54
2018-05-11T12:49:47.543Z,44.81
2018-05-11T12:52:14.960Z,43.88
2018-05-11T12:54:42.556Z,45.01
2018-05-11T12:57:09.971Z,43.47
2018-05-11T12:59:37.380Z,43.63
2018-05-11T13:02:04.825Z,45.01
2018-05-11T13:04:32.244Z,43.82
2018-05-11T13:06:59.648Z,41.42
2018-05-11T13:09:27.067Z,42.85
2018-05-11T13:11:54.475Z,43.60
2018-05-11T13:14:21.920Z,42.81
2018-05-11T13:16:49.324Z,43.20
2018-05-11T13:19:16.740Z,43.05
2018-05-11T13:21:44.150Z,42.95
2018-05-11T13:24:11.573Z,42.89
2018-05-11T13:26:38.996Z,42.33
2018-05-11T13:29:06.405Z,41.80
2018-05-11T13:31:33.828Z,41.07
2018-05-11T13:34:01.232Z,41.95
2018-05-11T13:36:28.761Z,42.84
2018-05-11T13:38:56.488Z,43.39
2018-05-11T13:41:23.945Z,44.02
2018-05-11T13:43:51.540Z,45.34
2018-05-11T13:46:18.967Z,44.78
2018-05-11T13:48:46.377Z,45.64
2018-05-11T13:51:13.804Z,45.44
2018-05-11T13:53:41.211Z,45.21
2018-05-11T13:56:08.804Z,44.73
2018-05-11T13:58:36.364Z,44.83
2018-05-11T14:01:03.784Z,44.15
2018-05-11T14:03:31.327Z,44.11
2018-05-11T14:05:58.798Z,44.35
2018-05-11T14:08:26.235Z,43.56
2018-05-11T14:10:53.644Z,43.48
2018-05-11T14:13:21.072Z,44.75
2018-05-11T14:15:48.472Z,42.45
2018-05-11T14:18:15.878Z,42.11
2018-05-11T14:20:43.363Z,42.49
2018-05-11T14:23:10.767Z,42.78
2018-05-11T14:25:38.199Z,42.36
2018-05-11T14:28:05.653Z,41.29
2018-05-11T14:30:33.183Z,42.35
2018-05-11T14:33:01.121Z,42.15
2018-05-11T14:35:28.819Z,41.43
2018-05-11T14:37:56.658Z,40.34
2018-05-11T14:40:25.430Z,41.14
2018-05-11T14:42:52.823Z,40.26
2018-05-11T14:45:20.252Z,40.58
2018-05-11T14:47:47.672Z,39.63
2018-05-11T14:50:15.078Z,40.56
2018-05-11T14:52:42.487Z,42.10
2018-05-11T14:55:09.885Z,41.33
2018-05-11T14:57:37.283Z,41.28
2018-05-11T15:00:04.699Z,40.20
2018-05-11T15:02:32.092Z,40.56
2018-05-11T15:04:59.503Z,40.28
2018-05-11T15:07:26.912Z,40.11
2018-05-11T15:09:54.323Z,40.03
2018-05-11T15:12:21.853Z,39.37
2018-05-11T15:14:49.261Z,39.41
2018-05-11T15:17:16.683Z,38.90
2018-05-11T15:19:44.082Z,39.41
2018-05-11T15:22:11.488Z,39.82
2018-05-11T15:24:38.912Z,38.39
2018-05-11T15:27:06.328Z,38.71
2018-05-11T15:29:33.744Z,38.79
2018-05-11T15:32:01.144Z,38.56
2018-05-11T15:34:28.555Z,38.56
2018-05-11T15:36:55.956Z,38.94
2018-05-11T15:39:23.377Z,38.90
2018-05-11T15:41:50.780Z,39.25
2018-05-11T15:44:18.179Z,39.40
2018-05-11T15:46:45.583Z,39.72
2018-05-11T15:49:13.004Z,39.66
2018-05-11T15:51:40.460Z,39.82
2018-05-11T15:54:07.864Z,39.86
2018-05-11T15:56:35.304Z,40.30
2018-05-11T15:59:02.787Z,40.40
2018-05-11T16:01:30.298Z,40.17
2018-05-11T16:03:57.711Z,39.68
2018-05-11T16:06:25.104Z,39.88
2018-05-11T16:08:52.528Z,40.07
2018-05-11T16:11:19.936Z,39.67
2018-05-11T16:13:47.351Z,40.38
2018-05-11T16:16:14.769Z,40.04
2018-05-11T16:18:42.167Z,40.60
2018-05-11T16:21:09.585Z,40.69
2018-05-11T16:23:36.995Z,40.80
2018-05-11T16:26:04.407Z,40.26
2018-05-11T16:28:31.809Z,39.23
2018-05-11T16:30:59.223Z,40.20
2018-05-11T16:33:26.628Z,39.52
2018-05-11T16:35:54.048Z,40.29
2018-05-11T16:38:21.441Z,41.19
2018-05-11T16:40:48.909Z,40.78
2018-05-11T16:43:16.303Z,41.59
2018-05-11T16:45:43.942Z,41.20
2018-05-11T16:48:11.336Z,41.43
2018-05-11T16:50:38.739Z,41.25
2018-05-11T16:53:06.161Z,41.53
2018-05-11T16:55:33.559Z,42.06
2018-05-11T16:58:00.957Z,42.27
2018-05-11T17:00:28.372Z,42.28
2018-05-11T17:02:55.772Z,42.36
2018-05-11T17:05:23.459Z,42.37
2018-05-11T17:07:50.859Z,41.95
2018-05-11T17:10:18.264Z,42.49
2018-05-11T17:12:45.887Z,42.33
2018-05-11T17:15:13.342Z,41.81
2018-05-11T17:17:41.060Z,41.91
2018-05-11T17:20:08.451Z,42.39
2018-05-11T17:22:35.929Z,42.56
2018-05-11T17:25:03.494Z,42.64
2018-05-11T17:27:30.917Z,42.48
2018-05-11T17:29:58.441Z,42.39
2018-05-11T17:32:25.794Z,42.63
2018-05-11T17:34:53.221Z,42.91
2018-05-11T17:37:20.646Z,42.91
2018-05-11T17:39:48.050Z,42.87
2018-05-11T17:42:15.460Z,42.56
2018-05-11T17:44:42.881Z,42.96
2018-05-11T17:47:10.316Z,42.91
2018-05-11T17:49:37.736Z,43.31
2018-05-11T17:52:05.137Z,43.19
2018-05-11T17:54:32.552Z,43.45
2018-05-11T17:57:00.033Z,43.63
2018-05-11T17:59:27.371Z,43.46
2018-05-11T18:01:57.791Z,44.08
2018-05-11T18:04:25.209Z,43.96
2018-05-11T18:06:52.626Z,43.95
2018-05-11T18:09:20.097Z,44.14
2018-05-11T18:11:48.302Z,44.28
2018-05-11T18:14:15.767Z,44.53
2018-05-11T18:16:44.372Z,44.72
2018-05-11T18:19:11.829Z,44.78
2018-05-11T18:21:39.252Z,45.04
2018-05-11T18:24:07.036Z,44.92
2018-05-11T18:26:34.469Z,45.03
2018-05-11T18:29:01.907Z,45.16
2018-05-11T18:31:29.364Z,45.33
2018-05-11T18:33:56.780Z,45.74
2018-05-11T18:36:24.242Z,46.10
2018-05-11T18:38:52.117Z,46.37
2018-05-11T18:41:19.536Z,46.81
2018-05-11T18:43:46.953Z,46.92
2018-05-11T18:46:14.365Z,47.38
2018-05-11T18:48:41.803Z,47.48
2018-05-11T18:51:09.235Z,48.04
2018-05-11T18:53:37.002Z,48.67
2018-05-11T18:56:04.084Z,49.24
2018-05-11T18:58:31.510Z,49.68
2018-05-11T19:00:59.345Z,49.86
2018-05-11T19:03:26.761Z,50.86
2018-05-11T19:05:54.183Z,51.57
2018-05-11T19:08:21.595Z,52.01
2018-05-11T19:10:49.000Z,52.28
2018-05-11T19:13:16.760Z,52.47
2018-05-11T19:15:44.160Z,52.69
2018-05-11T19:18:11.580Z,53.07
2018-05-11T19:20:39.352Z,52.75
2018-05-11T19:23:06.834Z,53.22
2018-05-11T19:25:34.260Z,53.46
2018-05-11T19:28:01.684Z,53.63
2018-05-11T19:30:29.115Z,53.71
2018-05-11T19:32:56.536Z,53.85
2018-05-11T19:35:23.957Z,53.84
2018-05-11T19:37:51.373Z,54.16
2018-05-11T19:40:18.808Z,54.24
2018-05-11T19:42:46.265Z,54.35
2018-05-11T19:45:14.016Z,54.59
2018-05-11T19:47:41.424Z,54.56
2018-05-11T19:50:08.827Z,54.59
2018-05-11T19:52:36.242Z,54.88
2018-05-11T19:55:03.744Z,55.18
2018-05-11T19:57:31.180Z,55.21
2018-05-11T19:59:58.595Z,55.23
2018-05-11T20:02:26.003Z,55.06
2018-05-11T20:04:53.425Z,55.14
2018-05-11T20:07:21.834Z,55.61
2018-05-11T20:09:49.437Z,55.46
2018-05-11T20:12:16.835Z,55.23
2018-05-11T20:14:44.247Z,55.41
2018-05-11T20:17:11.980Z,55.49
2018-05-11T20:19:39.383Z,55.97
2018-05-11T20:22:06.922Z,56.09
2018-05-11T20:24:34.480Z,56.20
2018-05-11T20:27:01.883Z,56.30
2018-05-11T20:29:29.288Z,56.58
2018-05-11T20:31:56.708Z,56.66
2018-05-11T20:34:24.144Z,57.07
2018-05-11T20:36:51.548Z,57.33
2018-05-11T20:39:18.977Z,57.12
2018-05-11T20:41:46.385Z,57.45
2018-05-11T20:44:13.796Z,57.10
2018-05-11T20:46:41.217Z,57.52
2018-05-11T20:49:08.617Z,57.46
2018-05-11T20:51:36.036Z,57.65
2018-05-11T20:54:03.470Z,58.01
2018-05-11T20:56:30.870Z,57.69
2018-05-11T20:58:58.444Z,57.94
2018-05-11T21:01:25.848Z,57.94
2018-05-11T21:03:53.243Z,57.99
2018-05-11T21:06:20.677Z,58.39
2018-05-11T21:08:48.228Z,58.35
2018-05-11T21:11:15.653Z,58.02
2018-05-11T21:13:43.060Z,58.26
2018-05-11T21:16:10.464Z,58.66
2018-05-11T21:18:38.355Z,58.93
2018-05-11T21:21:05.803Z,58.83
2018-05-11T21:23:33.225Z,58.94
2018-05-11T21:26:01.033Z,58.88
2018-05-11T21:28:28.485Z,59.36
2018-05-11T21:30:55.901Z,59.44
2018-05-11T21:33:23.405Z,59.49
2018-05-11T21:35:50.748Z,59.68
2018-05-11T21:38:18.186Z,59.70
2018-05-11T21:40:45.662Z,59.80
2018-05-11T21:43:14.180Z,59.88
2018-05-11T21:45:41.628Z,59.58
2018-05-11T21:48:09.050Z,59.55
2018-05-11T21:50:36.663Z,59.69
2018-05-11T21:53:04.227Z,59.85
2018-05-11T21:55:31.856Z,59.67
2018-05-11T21:57:59.283Z,59.96
2018-05-11T22:00:26.728Z,59.79
2018-05-11T22:02:54.187Z,59.73
2018-05-11T22:05:21.595Z,60.01
2018-05-11T22:07:49.458Z,60.03
2018-05-11T22:10:16.893Z,60.08
2018-05-11T22:12:44.305Z,60.30
2018-05-11T22:15:11.746Z,60.28
2018-05-11T22:17:39.175Z,60.42
2018-05-11T22:20:06.584Z,60.61
2018-05-11T22:22:34.022Z,60.74
2018-05-11T22:25:01.447Z,61.02
2018-05-11T22:27:29.180Z,61.19
2018-05-11T22:29:56.588Z,61.46
2018-05-11T22:32:25.723Z,61.64
2018-05-11T22:34:53.189Z,61.62
2018-05-11T22:37:20.594Z,61.51
2018-05-11T22:39:51.309Z,61.96
2018-05-11T22:42:20.241Z,61.85
2018-05-11T22:44:47.797Z,61.94
2018-05-11T22:47:15.477Z,62.22
2018-05-11T22:49:42.891Z,62.29
2018-05-11T22:52:10.308Z,62.32
2018-05-11T22:54:37.744Z,62.59
2018-05-11T22:57:05.163Z,62.75
2018-05-11T22:59:32.596Z,62.60
2018-05-11T23:02:00.017Z,62.55
2018-05-11T23:04:27.448Z,62.86
2018-05-11T23:06:54.865Z,62.94
2018-05-11T23:09:22.520Z,63.18
2018-05-11T23:11:50.281Z,63.51
2018-05-11T23:14:17.760Z,63.70
2018-05-11T23:16:45.204Z,63.49
2018-05-11T23:19:12.942Z,63.70
2018-05-11T23:21:40.361Z,63.72
2018-05-11T23:24:07.767Z,63.92
2018-05-11T23:26:35.224Z,64.00
2018-05-11T23:29:02.651Z,63.99
2018-05-11T23:31:30.097Z,63.93
2018-05-11T23:33:57.504Z,64.15
2018-05-11T23:36:25.101Z,64.36
2018-05-11T23:38:52.522Z,64.17
2018-05-11T23:41:19.950Z,64.34
2018-05-11T23:43:47.523Z,64.50
2018-05-11T23:46:14.952Z,64.25
2018-05-11T23:48:42.379Z,64.47
2018-05-11T23:51:09.809Z,64.07
2018-05-11T23:53:37.240Z,64.18
2018-05-11T23:56:04.674Z,64.42
2018-05-11T23:58:32.109Z,64.23
